createdAt,value
2019-03-30T00:00:31.697Z,15.43
2019-03-30T00:03:01.158Z,16.03
2019-03-30T00:05:30.633Z,15.97
2019-03-30T00:08:00.183Z,16.53
2019-03-30T00:10:29.612Z,17.73
2019-03-30T00:12:59.162Z,14.27
2019-03-30T00:15:28.623Z,16.00
2019-03-30T00:17:58.123Z,15.60
2019-03-30T00:20:27.672Z,16.87
2019-03-30T00:22:57.172Z,14.17
2019-03-30T00:25:26.630Z,12.87
2019-03-30T00:27:56.067Z,14.63
2019-03-30T00:30:25.623Z,13.93
2019-03-30T00:33:00.737Z,15.77
2019-03-30T00:35:30.246Z,15.17
2019-03-30T00:37:59.797Z,13.97
2019-03-30T00:40:29.272Z,14.53
2019-03-30T00:42:58.766Z,14.40
2019-03-30T00:45:28.246Z,13.30
2019-03-30T00:47:57.710Z,13.90
2019-03-30T00:50:27.165Z,13.70
2019-03-30T00:52:56.637Z,11.40
2019-03-30T00:55:26.094Z,14.00
2019-03-30T00:57:55.568Z,11.23
2019-03-30T01:00:25.175Z,12.90
2019-03-30T01:02:54.718Z,12.07
2019-03-30T01:05:24.177Z,11.67
2019-03-30T01:07:53.729Z,15.27
2019-03-30T01:10:23.436Z,13.77
2019-03-30T01:12:52.900Z,13.33
2019-03-30T01:15:22.366Z,12.33
2019-03-30T01:17:51.869Z,11.97
2019-03-30T01:20:21.405Z,11.97
2019-03-30T01:22:50.875Z,14.40
2019-03-30T01:25:20.387Z,14.07
2019-03-30T01:27:49.951Z,13.10
2019-03-30T01:30:23.310Z,12.40
2019-03-30T01:32:50.833Z,13.00
2019-03-30T01:35:20.426Z,12.83
2019-03-30T01:37:50.034Z,10.90
2019-03-30T01:40:19.599Z,11.97
2019-03-30T01:42:49.051Z,14.23
2019-03-30T01:45:18.511Z,14.67
2019-03-30T01:47:48.011Z,12.43
2019-03-30T01:50:18.230Z,14.87
2019-03-30T01:52:47.718Z,12.23
2019-03-30T01:55:17.209Z,14.00
2019-03-30T01:57:46.666Z,15.40
2019-03-30T02:00:17.431Z,12.53
2019-03-30T02:02:46.942Z,12.23
2019-03-30T02:05:16.458Z,11.00
2019-03-30T02:07:46.055Z,10.70
2019-03-30T02:10:20.154Z,10.37
2019-03-30T02:12:49.588Z,11.70
2019-03-30T02:15:19.066Z,12.00
2019-03-30T02:17:48.530Z,13.43
2019-03-30T02:20:30.933Z,10.60
2019-03-30T02:22:56.498Z,12.37
2019-03-30T02:25:26.041Z,14.17
2019-03-30T02:27:55.545Z,11.70
2019-03-30T02:30:25.012Z,13.50
2019-03-30T02:32:54.491Z,10.37
2019-03-30T02:35:26.450Z,12.60
2019-03-30T02:37:55.204Z,12.80
2019-03-30T02:40:24.665Z,14.97
2019-03-30T02:42:54.162Z,11.90
2019-03-30T02:45:23.718Z,11.83
2019-03-30T02:47:53.166Z,12.33
2019-03-30T02:50:22.629Z,12.80
2019-03-30T02:52:52.186Z,12.63
2019-03-30T02:55:21.715Z,13.30
2019-03-30T02:57:51.207Z,13.40
2019-03-30T03:00:20.920Z,11.67
2019-03-30T03:02:50.416Z,12.97
2019-03-30T03:05:20.194Z,14.83
2019-03-30T03:07:49.706Z,12.30
2019-03-30T03:10:19.459Z,9.83
2019-03-30T03:12:48.954Z,12.90
2019-03-30T03:15:18.559Z,10.50
2019-03-30T03:17:48.068Z,11.93
2019-03-30T03:20:17.810Z,10.23
2019-03-30T03:22:47.433Z,11.43
2019-03-30T03:25:16.950Z,11.17
2019-03-30T03:27:46.511Z,12.20
2019-03-30T03:30:16.271Z,14.43
2019-03-30T03:32:45.712Z,15.37
2019-03-30T03:35:15.326Z,12.77
2019-03-30T03:37:46.429Z,14.47
2019-03-30T03:40:16.293Z,11.33
2019-03-30T03:42:45.855Z,12.07
2019-03-30T03:45:15.508Z,12.83
2019-03-30T03:47:44.965Z,12.80
2019-03-30T03:50:42.873Z,14.70
2019-03-30T03:53:15.129Z,12.37
2019-03-30T03:55:45.699Z,15.60
2019-03-30T03:58:17.721Z,14.53
2019-03-30T04:00:47.418Z,13.83
2019-03-30T04:03:19.123Z,13.53
2019-03-30T04:05:49.134Z,14.43
2019-03-30T04:08:18.794Z,14.97
2019-03-30T04:10:48.897Z,13.90
2019-03-30T04:13:18.757Z,13.00
2019-03-30T04:15:48.284Z,12.23
2019-03-30T04:18:18.884Z,14.53
2019-03-30T04:20:48.402Z,14.40
2019-03-30T04:23:17.964Z,11.43
2019-03-30T04:25:47.701Z,12.77
2019-03-30T04:28:17.285Z,14.60
2019-03-30T04:30:46.807Z,10.43
2019-03-30T04:33:16.286Z,11.60
2019-03-30T04:35:45.721Z,13.00
2019-03-30T04:38:15.202Z,11.30
2019-03-30T04:40:44.663Z,12.47
2019-03-30T04:43:14.132Z,15.03
2019-03-30T04:45:43.636Z,13.17
2019-03-30T04:48:13.062Z,12.83
2019-03-30T04:50:42.550Z,14.97
2019-03-30T04:53:12.017Z,14.40
2019-03-30T04:55:41.444Z,12.13
2019-03-30T04:58:10.907Z,12.07
2019-03-30T05:00:40.364Z,13.77
2019-03-30T05:03:09.803Z,13.43
2019-03-30T05:05:42.797Z,13.63
2019-03-30T05:08:10.558Z,15.93
2019-03-30T05:10:40.046Z,14.60
2019-03-30T05:13:09.518Z,13.37
2019-03-30T05:15:39.006Z,14.23
2019-03-30T05:18:08.541Z,10.90
2019-03-30T05:20:38.113Z,13.20
2019-03-30T05:23:07.556Z,12.20
2019-03-30T05:25:37.014Z,11.97
2019-03-30T05:28:06.565Z,12.73
2019-03-30T05:30:36.013Z,12.97
2019-03-30T05:33:06.527Z,13.03
2019-03-30T05:35:36.148Z,11.87
2019-03-30T05:38:05.615Z,13.53
2019-03-30T05:40:35.068Z,14.03
2019-03-30T05:43:04.608Z,14.47
2019-03-30T05:45:34.148Z,10.37
2019-03-30T05:48:03.679Z,11.97
2019-03-30T05:50:33.185Z,10.80
2019-03-30T05:53:02.654Z,11.73
2019-03-30T05:55:32.197Z,12.67
2019-03-30T05:58:01.688Z,13.47
2019-03-30T06:00:31.138Z,10.50
2019-03-30T06:03:00.740Z,14.93
2019-03-30T06:05:30.215Z,15.43
2019-03-30T06:07:59.670Z,14.77
2019-03-30T06:10:29.132Z,16.00
2019-03-30T06:12:58.796Z,12.10
2019-03-30T06:15:28.376Z,14.53
2019-03-30T06:17:57.856Z,13.50
2019-03-30T06:20:27.325Z,13.80
2019-03-30T06:22:56.794Z,14.77
2019-03-30T06:25:26.268Z,13.60
2019-03-30T06:27:55.701Z,14.53
2019-03-30T06:30:27.569Z,16.03
2019-03-30T06:32:57.012Z,15.40
2019-03-30T06:35:26.637Z,14.77
2019-03-30T06:37:56.112Z,14.90
2019-03-30T06:40:25.633Z,17.07
2019-03-30T06:42:55.090Z,15.47
2019-03-30T06:45:24.815Z,15.60
2019-03-30T06:47:54.354Z,17.17
2019-03-30T06:50:23.823Z,14.13
2019-03-30T06:52:58.012Z,14.17
2019-03-30T06:55:26.830Z,13.77
2019-03-30T06:57:56.403Z,15.20
2019-03-30T07:00:36.435Z,15.47
2019-03-30T07:03:07.324Z,16.20
2019-03-30T07:05:40.037Z,13.13
2019-03-30T07:08:13.259Z,12.90
2019-03-30T07:10:46.258Z,14.57
2019-03-30T07:13:16.116Z,15.80
2019-03-30T07:15:48.848Z,13.27
2019-03-30T07:18:19.127Z,13.70
2019-03-30T07:20:48.721Z,13.53
2019-03-30T07:23:18.276Z,15.30
2019-03-30T07:25:47.786Z,14.13
2019-03-30T07:28:17.468Z,13.50
2019-03-30T07:30:47.103Z,13.03
2019-03-30T07:33:16.680Z,13.67
2019-03-30T07:35:46.142Z,13.30
2019-03-30T07:38:15.651Z,11.83
2019-03-30T07:40:45.237Z,11.07
2019-03-30T07:43:14.787Z,12.30
2019-03-30T07:45:44.353Z,12.50
2019-03-30T07:48:13.842Z,13.43
2019-03-30T07:50:43.380Z,12.67
2019-03-30T07:53:25.615Z,12.90
2019-03-30T07:55:44.082Z,13.50
2019-03-30T07:58:13.566Z,12.43
2019-03-30T08:00:43.261Z,12.67
2019-03-30T08:03:12.730Z,13.13
2019-03-30T08:05:42.281Z,11.77
2019-03-30T08:08:11.840Z,12.40
2019-03-30T08:10:41.305Z,14.67
2019-03-30T08:13:10.904Z,15.13
2019-03-30T08:15:44.571Z,14.33
2019-03-30T08:18:14.108Z,12.97
2019-03-30T08:20:43.663Z,12.33
2019-03-30T08:23:13.264Z,14.13
2019-03-30T08:25:42.817Z,12.70
2019-03-30T08:28:12.275Z,12.57
2019-03-30T08:30:41.822Z,14.47
2019-03-30T08:33:11.281Z,13.50
2019-03-30T08:35:40.793Z,15.77
2019-03-30T08:38:13.301Z,13.80
2019-03-30T08:40:42.894Z,13.73
2019-03-30T08:43:12.403Z,14.53
2019-03-30T08:45:41.979Z,14.40
2019-03-30T08:48:11.560Z,13.70
2019-03-30T08:50:41.036Z,14.00
2019-03-30T08:53:10.594Z,14.63
2019-03-30T08:55:40.034Z,16.03
2019-03-30T08:58:09.501Z,12.63
2019-03-30T09:00:43.838Z,12.90
2019-03-30T09:03:13.462Z,13.33
2019-03-30T09:05:43.118Z,13.80
2019-03-30T09:08:12.770Z,13.13
2019-03-30T09:10:42.270Z,14.43
2019-03-30T09:13:11.752Z,11.77
2019-03-30T09:15:41.228Z,15.50
2019-03-30T09:18:10.673Z,12.53
2019-03-30T09:20:43.076Z,11.43
2019-03-30T09:23:12.621Z,11.93
2019-03-30T09:25:42.276Z,12.60
2019-03-30T09:28:11.717Z,12.87
2019-03-30T09:30:41.348Z,12.17
2019-03-30T09:33:10.871Z,14.47
2019-03-30T09:35:40.473Z,11.53
2019-03-30T09:38:09.973Z,12.90
2019-03-30T09:40:39.430Z,13.40
2019-03-30T09:43:08.893Z,11.27
2019-03-30T09:45:38.368Z,11.83
2019-03-30T09:48:07.963Z,13.80
2019-03-30T09:50:37.504Z,13.33
2019-03-30T09:53:07.158Z,11.50
2019-03-30T09:55:36.637Z,12.87
2019-03-30T09:58:06.157Z,12.53
2019-03-30T10:00:35.637Z,11.77
2019-03-30T10:03:06.176Z,13.07
2019-03-30T10:05:35.895Z,11.43
2019-03-30T10:08:08.449Z,12.17
2019-03-30T10:10:37.971Z,9.90
2019-03-30T10:13:07.461Z,12.27
2019-03-30T10:15:36.976Z,12.73
2019-03-30T10:18:06.539Z,10.90
2019-03-30T10:20:36.008Z,13.10
2019-03-30T10:23:05.462Z,13.00
2019-03-30T10:25:35.031Z,12.20
2019-03-30T10:28:04.486Z,11.63
2019-03-30T10:30:33.945Z,11.30
2019-03-30T10:33:03.429Z,11.67
2019-03-30T10:35:32.894Z,11.33
2019-03-30T10:38:02.433Z,12.10
2019-03-30T10:40:31.942Z,13.10
2019-03-30T10:43:01.516Z,12.83
2019-03-30T10:45:30.962Z,13.30
2019-03-30T10:48:00.465Z,13.30
2019-03-30T10:50:29.939Z,13.43
2019-03-30T10:52:59.445Z,13.57
2019-03-30T10:55:28.986Z,13.13
2019-03-30T10:57:58.926Z,14.20
2019-03-30T11:00:39.823Z,12.37
2019-03-30T11:03:09.408Z,11.10
2019-03-30T11:05:39.032Z,11.87
2019-03-30T11:08:08.652Z,11.47
2019-03-30T11:10:38.275Z,11.53
2019-03-30T11:13:07.741Z,10.27
2019-03-30T11:15:37.290Z,10.60
2019-03-30T11:18:06.841Z,9.57
2019-03-30T11:20:36.350Z,10.67
2019-03-30T11:23:05.994Z,9.67
2019-03-30T11:25:35.559Z,10.63
2019-03-30T11:28:05.173Z,10.30
2019-03-30T11:30:34.803Z,13.30
2019-03-30T11:33:04.324Z,11.87
2019-03-30T11:35:33.794Z,10.53
2019-03-30T11:38:03.375Z,11.57
2019-03-30T11:40:32.925Z,9.97
2019-03-30T11:43:02.389Z,11.63
2019-03-30T11:45:31.917Z,11.07
2019-03-30T11:48:01.447Z,9.50
2019-03-30T11:50:30.899Z,12.00
2019-03-30T11:53:00.406Z,12.07
2019-03-30T11:55:29.884Z,9.97
2019-03-30T11:57:59.531Z,9.63
2019-03-30T12:00:29.163Z,9.60
2019-03-30T12:02:58.608Z,9.27
2019-03-30T12:05:30.959Z,9.67
2019-03-30T12:08:03.065Z,9.20
2019-03-30T12:10:32.654Z,9.67
2019-03-30T12:13:02.235Z,9.40
2019-03-30T12:15:31.862Z,8.93
2019-03-30T12:18:01.547Z,9.30
2019-03-30T12:20:31.075Z,9.37
2019-03-30T12:23:00.688Z,8.03
2019-03-30T12:25:35.706Z,8.57
2019-03-30T12:28:01.456Z,8.23
2019-03-30T12:30:31.177Z,7.70
2019-03-30T12:33:00.624Z,10.07
2019-03-30T12:35:30.123Z,9.93
2019-03-30T12:37:59.742Z,10.50
2019-03-30T12:40:29.248Z,8.97
2019-03-30T12:42:59.001Z,8.33
2019-03-30T12:45:30.047Z,8.67
2019-03-30T12:48:01.126Z,9.13
2019-03-30T12:50:32.130Z,9.93
2019-03-30T12:53:01.686Z,9.70
2019-03-30T12:55:33.087Z,10.43
2019-03-30T12:58:04.971Z,9.07
2019-03-30T13:00:34.552Z,9.20
2019-03-30T13:03:09.845Z,7.70
2019-03-30T13:05:39.324Z,11.60
2019-03-30T13:08:10.545Z,9.43
2019-03-30T13:10:40.165Z,9.90
2019-03-30T13:13:09.732Z,8.87
2019-03-30T13:15:39.186Z,10.50
2019-03-30T13:18:08.675Z,11.33
2019-03-30T13:20:38.358Z,10.63
2019-03-30T13:23:07.840Z,11.23
2019-03-30T13:25:38.866Z,9.03
2019-03-30T13:28:08.459Z,9.33
2019-03-30T13:30:37.913Z,9.30
2019-03-30T13:33:07.370Z,8.00
2019-03-30T13:35:36.946Z,11.33
2019-03-30T13:38:06.506Z,10.03
2019-03-30T13:40:36.053Z,10.27
2019-03-30T13:43:05.633Z,11.67
2019-03-30T13:45:35.209Z,10.10
2019-03-30T13:48:04.824Z,9.40
2019-03-30T13:50:34.309Z,9.73
2019-03-30T13:53:03.892Z,11.23
2019-03-30T13:55:33.411Z,11.33
2019-03-30T13:58:02.892Z,9.73
2019-03-30T14:00:32.346Z,11.07
2019-03-30T14:03:01.809Z,9.50
2019-03-30T14:05:31.331Z,11.17
2019-03-30T14:08:00.821Z,10.87
2019-03-30T14:10:30.272Z,10.43
2019-03-30T14:12:59.751Z,9.97
2019-03-30T14:15:29.255Z,9.23
2019-03-30T14:17:58.758Z,10.50
2019-03-30T14:20:28.250Z,11.47
2019-03-30T14:22:57.730Z,10.63
2019-03-30T14:25:27.486Z,9.67
2019-03-30T14:27:56.953Z,9.37
2019-03-30T14:30:26.501Z,9.47
2019-03-30T14:32:56.010Z,11.63
2019-03-30T14:35:25.498Z,8.87
2019-03-30T14:37:55.019Z,9.47
2019-03-30T14:40:24.529Z,10.10
2019-03-30T14:42:53.975Z,10.13
2019-03-30T14:45:23.494Z,9.13
2019-03-30T14:47:52.959Z,9.50
2019-03-30T14:50:22.578Z,9.80
2019-03-30T14:52:52.128Z,11.70
2019-03-30T14:55:21.632Z,10.50
2019-03-30T14:57:51.161Z,9.60
2019-03-30T15:00:20.959Z,8.13
2019-03-30T15:02:50.590Z,9.23
2019-03-30T15:05:20.129Z,9.70
2019-03-30T15:07:49.690Z,9.63
2019-03-30T15:10:19.254Z,9.73
2019-03-30T15:12:48.715Z,10.40
2019-03-30T15:15:18.320Z,10.23
2019-03-30T15:17:47.915Z,10.67
2019-03-30T15:20:17.533Z,12.17
2019-03-30T15:22:47.059Z,10.70
2019-03-30T15:25:16.918Z,9.60
2019-03-30T15:27:46.388Z,10.87
2019-03-30T15:30:16.070Z,9.47
2019-03-30T15:32:45.687Z,11.33
2019-03-30T15:35:15.359Z,10.23
2019-03-30T15:37:44.915Z,10.83
2019-03-30T15:40:14.608Z,11.03
2019-03-30T15:42:44.212Z,9.93
2019-03-30T15:45:14.108Z,10.83
2019-03-30T15:47:43.630Z,10.73
2019-03-30T15:50:13.980Z,11.00
2019-03-30T15:52:43.511Z,11.23
2019-03-30T15:55:13.180Z,12.77
2019-03-30T15:57:42.811Z,11.07
2019-03-30T16:00:17.174Z,10.33
2019-03-30T16:02:46.796Z,9.87
2019-03-30T16:05:26.252Z,9.67
2019-03-30T16:07:56.005Z,9.90
2019-03-30T16:10:25.655Z,9.50
2019-03-30T16:12:55.231Z,9.77
2019-03-30T16:15:24.718Z,9.90
2019-03-30T16:17:54.179Z,9.90
2019-03-30T16:20:24.199Z,9.37
2019-03-30T16:22:54.028Z,10.10
2019-03-30T16:25:23.662Z,9.63
2019-03-30T16:27:53.237Z,10.03
2019-03-30T16:30:22.830Z,10.40
2019-03-30T16:32:52.609Z,9.07
2019-03-30T16:35:22.193Z,10.00
2019-03-30T16:37:51.760Z,9.83
2019-03-30T16:40:21.256Z,9.33
2019-03-30T16:42:51.030Z,9.40
2019-03-30T16:45:20.712Z,10.10
2019-03-30T16:47:50.245Z,11.40
2019-03-30T16:50:19.915Z,9.13
2019-03-30T16:52:49.769Z,10.87
2019-03-30T16:55:19.555Z,10.33
2019-03-30T16:57:48.994Z,9.30
2019-03-30T17:00:20.440Z,8.87
2019-03-30T17:02:49.962Z,7.83
2019-03-30T17:05:19.615Z,9.70
2019-03-30T17:07:49.539Z,9.33
2019-03-30T17:10:28.565Z,11.17
2019-03-30T17:12:58.567Z,9.77
2019-03-30T17:15:28.029Z,9.63
2019-03-30T17:17:57.585Z,10.30
2019-03-30T17:20:27.128Z,10.40
2019-03-30T17:22:58.841Z,10.50
2019-03-30T17:25:29.429Z,10.27
2019-03-30T17:27:59.179Z,11.10
2019-03-30T17:30:28.782Z,12.63
2019-03-30T17:32:58.353Z,11.77
2019-03-30T17:35:27.876Z,11.10
2019-03-30T17:37:57.440Z,12.47
2019-03-30T17:40:27.098Z,12.87
2019-03-30T17:42:56.743Z,15.27
2019-03-30T17:45:26.587Z,16.57
2019-03-30T17:47:56.111Z,17.20
2019-03-30T17:50:25.717Z,17.57
2019-03-30T17:52:55.282Z,18.07
2019-03-30T17:55:33.548Z,18.77
2019-03-30T17:57:56.132Z,18.50
2019-03-30T18:00:25.748Z,19.43
2019-03-30T18:02:55.233Z,18.27
2019-03-30T18:05:24.776Z,18.53
2019-03-30T18:07:54.233Z,16.50
2019-03-30T18:10:23.716Z,18.20
2019-03-30T18:12:53.175Z,17.17
2019-03-30T18:15:23.702Z,19.03
2019-03-30T18:17:56.506Z,19.90
2019-03-30T18:20:24.513Z,17.27
2019-03-30T18:22:54.013Z,18.13
2019-03-30T18:25:23.521Z,16.63
2019-03-30T18:27:53.068Z,15.80
2019-03-30T18:30:37.799Z,15.67
2019-03-30T18:33:07.776Z,19.10
2019-03-30T18:35:39.974Z,16.67
2019-03-30T18:38:12.763Z,20.77
2019-03-30T18:40:41.517Z,18.57
2019-03-30T18:43:11.313Z,17.70
2019-03-30T18:45:40.812Z,19.67
2019-03-30T18:48:19.834Z,20.07
2019-03-30T18:50:49.516Z,17.90
2019-03-30T18:53:19.315Z,18.17
2019-03-30T18:55:48.811Z,17.57
2019-03-30T18:58:18.329Z,18.17
2019-03-30T19:00:47.873Z,22.57
2019-03-30T19:03:20.054Z,22.83
2019-03-30T19:05:48.619Z,25.83
2019-03-30T19:08:18.192Z,28.47
2019-03-30T19:10:47.709Z,34.10
2019-03-30T19:13:17.168Z,32.17
2019-03-30T19:15:46.667Z,35.03
2019-03-30T19:18:16.205Z,26.20
2019-03-30T19:20:45.658Z,21.27
2019-03-30T19:23:15.136Z,22.10
2019-03-30T19:25:44.651Z,23.03
2019-03-30T19:28:14.103Z,21.23
2019-03-30T19:30:43.659Z,20.23
2019-03-30T19:33:13.277Z,23.47
2019-03-30T19:35:42.817Z,21.33
2019-03-30T19:38:12.467Z,20.43
2019-03-30T19:40:41.900Z,25.87
2019-03-30T19:43:11.492Z,20.27
2019-03-30T19:45:41.136Z,21.47
2019-03-30T19:48:10.687Z,26.43
2019-03-30T19:50:40.167Z,31.27
2019-03-30T19:53:09.671Z,24.53
2019-03-30T19:55:39.240Z,21.50
2019-03-30T19:58:08.708Z,21.60
2019-03-30T20:00:38.901Z,22.57
2019-03-30T20:03:08.825Z,22.43
2019-03-30T20:05:38.378Z,21.63
2019-03-30T20:08:12.428Z,19.40
2019-03-30T20:10:39.244Z,20.33
2019-03-30T20:13:09.344Z,20.17
2019-03-30T20:15:38.816Z,20.17
2019-03-30T20:18:08.458Z,19.07
2019-03-30T20:20:37.994Z,19.70
2019-03-30T20:23:07.496Z,22.03
2019-03-30T20:25:37.029Z,20.33
2019-03-30T20:28:06.523Z,21.93
2019-03-30T20:30:36.070Z,19.83
2019-03-30T20:33:05.814Z,17.93
2019-03-30T20:35:35.280Z,17.13
2019-03-30T20:38:04.820Z,19.20
2019-03-30T20:40:34.320Z,20.33
2019-03-30T20:43:03.788Z,20.37
2019-03-30T20:45:33.255Z,19.53
2019-03-30T20:48:02.734Z,18.40
2019-03-30T20:50:32.226Z,19.07
2019-03-30T20:53:01.702Z,21.57
2019-03-30T20:55:33.894Z,21.27
2019-03-30T20:58:02.475Z,24.60
2019-03-30T21:00:32.038Z,23.23
2019-03-30T21:03:01.661Z,25.17
2019-03-30T21:05:31.198Z,20.13
2019-03-30T21:08:00.660Z,20.43
2019-03-30T21:10:31.135Z,19.73
2019-03-30T21:13:00.668Z,21.67
2019-03-30T21:15:30.263Z,25.63
2019-03-30T21:17:59.847Z,27.07
2019-03-30T21:20:30.493Z,28.27
2019-03-30T21:22:59.787Z,27.30
2019-03-30T21:25:29.342Z,24.30
2019-03-30T21:27:58.805Z,21.00
2019-03-30T21:30:28.601Z,25.67
2019-03-30T21:32:58.314Z,25.53
2019-03-30T21:35:27.945Z,25.83
2019-03-30T21:37:58.734Z,26.53
2019-03-30T21:40:28.402Z,25.50
2019-03-30T21:42:58.211Z,26.87
2019-03-30T21:45:28.030Z,22.93
2019-03-30T21:47:57.646Z,27.47
2019-03-30T21:50:28.831Z,28.47
2019-03-30T21:52:58.513Z,27.33
2019-03-30T21:55:28.312Z,27.87
2019-03-30T21:57:57.949Z,29.67
2019-03-30T22:00:36.400Z,23.23
2019-03-30T22:03:07.130Z,29.67
2019-03-30T22:05:37.060Z,30.37
2019-03-30T22:08:07.335Z,22.13
2019-03-30T22:10:37.044Z,21.87
2019-03-30T22:13:06.801Z,24.07
2019-03-30T22:15:36.426Z,22.70
2019-03-30T22:18:06.064Z,23.60
2019-03-30T22:20:35.658Z,27.97
2019-03-30T22:23:05.151Z,28.17
2019-03-30T22:25:34.955Z,26.57
2019-03-30T22:28:04.563Z,25.17
2019-03-30T22:30:34.146Z,27.97
2019-03-30T22:33:03.778Z,30.07
2019-03-30T22:35:33.356Z,31.27
2019-03-30T22:38:02.843Z,33.77
2019-03-30T22:40:32.349Z,33.20
2019-03-30T22:43:01.916Z,28.47
2019-03-30T22:45:31.411Z,30.30
2019-03-30T22:48:00.893Z,33.20
2019-03-30T22:50:30.388Z,30.60
2019-03-30T22:52:59.939Z,29.50
2019-03-30T22:55:29.500Z,33.50
2019-03-30T22:57:59.037Z,30.43
2019-03-30T23:00:38.888Z,27.47
2019-03-30T23:03:08.225Z,28.83
2019-03-30T23:05:37.838Z,32.23
2019-03-30T23:08:07.457Z,28.77
2019-03-30T23:10:36.941Z,31.23
2019-03-30T23:13:06.658Z,30.00
2019-03-30T23:15:36.241Z,34.97
2019-03-30T23:18:06.054Z,38.03
2019-03-30T23:20:35.599Z,35.70
2019-03-30T23:23:05.106Z,30.37
2019-03-30T23:25:34.875Z,36.83
2019-03-30T23:28:04.466Z,32.13
2019-03-30T23:30:34.019Z,31.57
2019-03-30T23:33:03.580Z,30.97
2019-03-30T23:35:33.115Z,29.53
2019-03-30T23:38:02.677Z,34.60
2019-03-30T23:40:32.236Z,36.40
2019-03-30T23:43:01.756Z,36.30
2019-03-30T23:45:31.261Z,32.63
2019-03-30T23:48:00.933Z,33.97
2019-03-30T23:50:30.416Z,29.93
2019-03-30T23:52:59.898Z,32.43
2019-03-30T23:55:29.378Z,34.33
2019-03-30T23:57:58.918Z,33.43
